Decoded Metar for LFLS (GRENOBLE in FRANCE) (IATA:GNB) | Meteo·Mobile Aviation Weather
aviador You're here:

LFLS Decoded Metar

GRENOBLE in FRANCE
Report Time2018-08-21 07:30:00
UTC Time2018-08-21 07:52:20
Flight Rules vfr VFR
WindVRB at 01 kt
Visibility9999 m
Phenomena:N/A
Clouds:N/A
Expected CloudBase > 2,000 ft AGL from Temp-Dew spread
CeilingNone
Temp21°C (ISA +9)
Dew Point16°C (73% RH)
QNH1020 hPa
Density Alt2,270 ft
Elevation1,266 ft
Report Wrong Elevation
Raw Report
METAR LFLS 210730Z AUTO VRB01KT CAVOK 21/16 Q1020 NOSIG=

Extra information for LFLS:More info

Metar Taf Metar & Taf Last 4 Metars F.Rules Stats Wind Profile Meteogram Temp Stats Airport Information Weather charts Add Link Nearby VenuesMetar ALERT Operation Metar Decoded Social comments